Time,TemperatureF,DewpointF,PressureIn,WindDirection,WindDirectionDegrees,WindSpeedMPH,WindSpeedGustMPH,Humidity,HourlyPrecipIn,Conditions,Clouds,dailyrainin,SolarRadiationWatts/m^2,SoftwareType,DateUTC
2013-07-12 00:04:00,74.0,71.0,29.95,SW,215,0.0,4.0,91,0.00,,,0.00,0,weatherlink.com 1.10,2013-07-12 04:04:00,
2013-07-12 00:19:00,73.9,71.0,29.94,SW,215,2.0,6.0,91,0.00,,,0.00,0,weatherlink.com 1.10,2013-07-12 04:19:00,
2013-07-12 00:34:00,73.8,71.0,29.94,SW,215,0.0,5.0,91,0.00,,,0.00,0,weatherlink.com 1.10,2013-07-12 04:34:00,
2013-07-12 00:50:00,73.8,71.0,29.94,SW,215,2.0,4.0,92,0.00,,,0.00,0,weatherlink.com 1.10,2013-07-12 04:50:00,
2013-07-12 01:05:00,73.7,71.0,29.94,SW,215,0.0,2.0,92,0.00,,,0.00,0,weatherlink.com 1.10,2013-07-12 05:05:00,
2013-07-12 01:20:00,73.6,71.0,29.94,SW,215,0.0,0.0,92,0.00,,,0.00,0,weatherlink.com 1.10,2013-07-12 05:20:00,
2013-07-12 01:35:00,73.5,71.0,29.93,SW,215,0.0,4.0,93,0.00,,,0.00,0,weatherlink.com 1.10,2013-07-12 05:35:00,
2013-07-12 01:50:00,73.3,72.0,29.93,SW,215,0.0,4.0,94,0.00,,,0.00,0,weatherlink.com 1.10,2013-07-12 05:50:00,
2013-07-12 02:05:00,73.2,71.0,29.93,SW,215,0.0,4.0,94,0.00,,,0.00,0,weatherlink.com 1.10,2013-07-12 06:05:00,
2013-07-12 02:20:00,73.0,71.0,29.92,SW,215,0.0,0.0,94,0.00,,,0.00,0,weatherlink.com 1.10,2013-07-12 06:20:00,
2013-07-12 02:35:00,72.8,71.0,29.92,SW,215,0.0,0.0,95,0.00,,,0.00,0,weatherlink.com 1.10,2013-07-12 06:35:00,
2013-07-12 02:50:00,72.9,71.0,29.92,SW,215,0.0,2.0,95,0.00,,,0.00,0,weatherlink.com 1.10,2013-07-12 06:50:00,
2013-07-12 03:05:00,72.8,71.0,29.92,SW,215,0.0,3.0,95,0.00,,,0.00,0,weatherlink.com 1.10,2013-07-12 07:05:00,
2013-07-12 03:20:00,72.8,71.0,29.91,SW,215,0.0,0.0,95,0.00,,,0.00,0,weatherlink.com 1.10,2013-07-12 07:20:00,
2013-07-12 03:35:00,72.9,72.0,29.91,SW,215,0.0,4.0,96,0.00,,,0.00,0,weatherlink.com 1.10,2013-07-12 07:35:00,
2013-07-12 03:50:00,72.9,72.0,29.90,SW,215,0.0,0.0,96,0.00,,,0.00,0,weatherlink.com 1.10,2013-07-12 07:50:00,
2013-07-12 04:05:00,73.0,72.0,29.90,SW,215,0.0,3.0,96,0.00,,,0.00,0,weatherlink.com 1.10,2013-07-12 08:05:00,
2013-07-12 04:20:00,73.2,72.0,29.90,SW,215,0.0,2.0,96,0.00,,,0.00,0,weatherlink.com 1.10,2013-07-12 08:20:00,
2013-07-12 04:35:00,73.3,72.0,29.90,SW,215,0.0,3.0,96,0.00,,,0.00,0,weatherlink.com 1.10,2013-07-12 08:35:00,
2013-07-12 04:50:00,73.3,72.0,29.90,SW,215,0.0,2.0,96,0.00,,,0.00,0,weatherlink.com 1.10,2013-07-12 08:50:00,
2013-07-12 05:05:00,73.4,72.0,29.90,SW,215,0.0,4.0,96,0.00,,,0.00,0,weatherlink.com 1.10,2013-07-12 09:05:00,
2013-07-12 05:20:00,73.3,72.0,29.90,SW,215,0.0,1.0,96,0.00,,,0.00,0,weatherlink.com 1.10,2013-07-12 09:20:00,
2013-07-12 05:35:00,73.3,72.0,29.89,SW,215,0.0,2.0,96,0.00,,,0.00,0,weatherlink.com 1.10,2013-07-12 09:35:00,
2013-07-12 05:50:00,73.1,72.0,29.90,SW,215,0.0,3.0,96,0.00,,,0.00,0,weatherlink.com 1.10,2013-07-12 09:50:00,
2013-07-12 06:05:00,73.0,72.0,29.90,SW,215,0.0,0.0,96,0.00,,,0.00,0,weatherlink.com 1.10,2013-07-12 10:05:00,
2013-07-12 06:20:00,73.0,72.0,29.91,SW,215,0.0,0.0,97,0.00,,,0.00,0,weatherlink.com 1.10,2013-07-12 10:20:00,
2013-07-12 06:35:00,72.9,72.0,29.90,SW,215,0.0,0.0,97,0.00,,,0.00,0,weatherlink.com 1.10,2013-07-12 10:35:00,
2013-07-12 06:50:00,72.8,72.0,29.91,SW,215,0.0,3.0,97,0.00,,,0.00,7,weatherlink.com 1.10,2013-07-12 10:50:00,
2013-07-12 07:05:00,72.8,72.0,29.91,SW,215,0.0,0.0,97,0.00,,,0.00,16,weatherlink.com 1.10,2013-07-12 11:05:00,
2013-07-12 07:20:00,73.1,73.0,29.91,SW,215,0.0,0.0,98,0.00,,,0.00,37,weatherlink.com 1.10,2013-07-12 11:20:00,
2013-07-12 07:35:00,73.6,73.0,29.92,SW,215,0.0,0.0,97,0.00,,,0.00,26,weatherlink.com 1.10,2013-07-12 11:35:00,
2013-07-12 07:50:00,73.9,73.0,29.93,SW,215,0.0,0.0,97,0.00,,,0.00,39,weatherlink.com 1.10,2013-07-12 11:50:00,
2013-07-12 08:05:00,74.6,74.0,29.93,SW,214,2.0,5.0,97,0.00,,,0.00,46,weatherlink.com 1.10,2013-07-12 12:05:00,
2013-07-12 08:21:00,75.3,74.0,29.93,SSW,192,3.0,7.0,95,0.00,,,0.00,51,weatherlink.com 1.10,2013-07-12 12:21:00,
2013-07-12 08:36:00,76.2,74.0,29.93,South,181,3.0,7.0,94,0.00,,,0.00,51,weatherlink.com 1.10,2013-07-12 12:36:00,
2013-07-12 08:51:00,77.4,75.0,29.93,South,178,4.0,7.0,91,0.00,,,0.00,65,weatherlink.com 1.10,2013-07-12 12:51:00,
2013-07-12 09:06:00,78.6,75.0,29.93,SSW,195,2.0,5.0,89,0.00,,,0.00,102,weatherlink.com 1.10,2013-07-12 13:06:00,
2013-07-12 09:21:00,80.4,76.0,29.93,South,169,5.0,7.0,85,0.00,,,0.00,223,weatherlink.com 1.10,2013-07-12 13:21:00,
2013-07-12 09:36:00,81.1,76.0,29.94,SSW,211,4.0,6.0,83,0.00,,,0.00,195,weatherlink.com 1.10,2013-07-12 13:36:00,
2013-07-12 09:51:00,82.3,76.0,29.94,SSE,166,5.0,7.0,82,0.00,,,0.00,596,weatherlink.com 1.10,2013-07-12 13:51:00,
2013-07-12 10:06:00,83.1,76.0,29.94,West,265,1.0,9.0,79,0.00,,,0.00,258,weatherlink.com 1.10,2013-07-12 14:06:00,
2013-07-12 10:21:00,83.6,76.0,29.94,WSW,246,3.0,10.0,77,0.00,,,0.00,295,weatherlink.com 1.10,2013-07-12 14:21:00,
2013-07-12 10:36:00,83.8,76.0,29.94,SSW,208,1.0,9.0,77,0.00,,,0.00,313,weatherlink.com 1.10,2013-07-12 14:36:00,
2013-07-12 10:51:00,85.3,77.0,29.93,SW,233,4.0,8.0,76,0.00,,,0.00,905,weatherlink.com 1.10,2013-07-12 14:51:00,
2013-07-12 11:06:00,86.4,76.0,29.93,West,273,8.0,8.0,71,0.00,,,0.00,956,weatherlink.com 1.10,2013-07-12 15:06:00,
2013-07-12 11:21:00,86.9,77.0,29.93,SSW,198,6.0,7.0,72,0.00,,,0.00,1020,weatherlink.com 1.10,2013-07-12 15:21:00,
2013-07-12 11:36:00,85.8,75.0,29.92,NW,309,0.0,6.0,71,0.00,,,0.00,294,weatherlink.com 1.10,2013-07-12 15:36:00,
2013-07-12 11:51:00,85.7,74.0,29.92,WNW,284,3.0,7.0,69,0.00,,,0.00,292,weatherlink.com 1.10,2013-07-12 15:51:00,
2013-07-12 12:06:00,87.6,75.0,29.91,SSW,202,2.0,8.0,67,0.00,,,0.00,246,weatherlink.com 1.10,2013-07-12 16:06:00,
2013-07-12 12:21:00,87.2,75.0,29.91,South,172,0.0,6.0,68,0.00,,,0.00,313,weatherlink.com 1.10,2013-07-12 16:21:00,
2013-07-12 12:36:00,86.4,76.0,29.91,SW,232,0.0,8.0,71,0.02,,,0.02,221,weatherlink.com 1.10,2013-07-12 16:36:00,
2013-07-12 12:51:00,84.7,78.0,29.91,SW,232,0.0,3.0,79,0.03,,,0.03,327,weatherlink.com 1.10,2013-07-12 16:51:00,
2013-07-12 13:21:00,85.7,77.0,29.91,NNW,331,0.0,6.0,76,0.03,,,0.03,1083,weatherlink.com 1.10,2013-07-12 17:21:00,
2013-07-12 13:36:00,87.9,75.0,29.90,SSW,194,7.0,8.0,66,0.01,,,0.03,986,weatherlink.com 1.10,2013-07-12 17:36:00,
2013-07-12 13:52:00,89.2,77.0,29.90,ESE,121,3.0,10.0,68,0.00,,,0.03,777,weatherlink.com 1.10,2013-07-12 17:52:00,
2013-07-12 14:06:00,86.8,77.0,29.89,SE,125,0.0,9.0,73,0.00,,,0.03,693,weatherlink.com 1.10,2013-07-12 18:06:00,
2013-07-12 14:22:00,86.4,76.0,29.88,SE,146,2.0,7.0,71,0.00,,,0.03,315,weatherlink.com 1.10,2013-07-12 18:22:00,
2013-07-12 14:36:00,85.2,74.0,29.89,WSW,250,1.0,9.0,70,0.00,,,0.03,262,weatherlink.com 1.10,2013-07-12 18:36:00,
2013-07-12 14:51:00,83.7,74.0,29.89,WSW,256,1.0,11.0,72,0.00,,,0.03,176,weatherlink.com 1.10,2013-07-12 18:51:00,
2013-07-12 15:07:00,82.5,74.0,29.92,West,279,2.0,4.0,75,0.00,,,0.03,93,weatherlink.com 1.10,2013-07-12 19:07:00,
2013-07-12 15:37:00,79.7,73.0,29.93,SW,214,9.0,12.0,80,0.01,,,0.04,33,weatherlink.com 1.10,2013-07-12 19:37:00,
2013-07-12 15:52:00,76.6,73.0,29.93,South,171,1.0,8.0,88,0.02,,,0.05,25,weatherlink.com 1.10,2013-07-12 19:52:00,
2013-07-12 16:07:00,74.9,72.0,29.92,South,187,0.0,6.0,90,0.04,,,0.07,23,weatherlink.com 1.10,2013-07-12 20:07:00,
2013-07-12 16:22:00,74.0,72.0,29.92,SSW,192,1.0,6.0,92,0.04,,,0.07,28,weatherlink.com 1.10,2013-07-12 20:22:00,
2013-07-12 16:37:00,73.7,72.0,29.92,SSW,192,0.0,4.0,93,0.04,,,0.08,37,weatherlink.com 1.10,2013-07-12 20:37:00,
2013-07-12 16:52:00,73.7,72.0,29.91,SSW,192,0.0,0.0,94,0.03,,,0.09,62,weatherlink.com 1.10,2013-07-12 20:52:00,
2013-07-12 17:06:00,73.8,72.0,29.91,SSW,192,1.0,3.0,94,0.03,,,0.10,104,weatherlink.com 1.10,2013-07-12 21:06:00,
2013-07-12 17:22:00,73.9,72.0,29.90,SSW,192,0.0,4.0,94,0.02,,,0.10,141,weatherlink.com 1.10,2013-07-12 21:22:00,
2013-07-12 17:37:00,74.2,72.0,29.90,SSW,192,0.0,3.0,94,0.02,,,0.10,171,weatherlink.com 1.10,2013-07-12 21:37:00,
2013-07-12 17:52:00,74.6,73.0,29.90,SSW,192,3.0,3.0,94,0.01,,,0.10,162,weatherlink.com 1.10,2013-07-12 21:52:00,
2013-07-12 18:07:00,75.0,73.0,29.89,SSW,192,0.0,4.0,94,0.00,,,0.10,181,weatherlink.com 1.10,2013-07-12 22:07:00,
2013-07-12 18:22:00,75.7,74.0,29.90,SSW,192,2.0,3.0,94,0.00,,,0.10,229,weatherlink.com 1.10,2013-07-12 22:22:00,
2013-07-12 18:36:00,76.4,74.0,29.89,SSE,164,4.0,7.0,91,0.00,,,0.10,213,weatherlink.com 1.10,2013-07-12 22:36:00,
2013-07-12 18:52:00,76.6,74.0,29.90,SSE,167,4.0,6.0,91,0.00,,,0.10,183,weatherlink.com 1.10,2013-07-12 22:52:00,
2013-07-12 19:07:00,76.6,74.0,29.90,SSE,167,1.0,5.0,90,0.00,,,0.10,123,weatherlink.com 1.10,2013-07-12 23:07:00,
2013-07-12 19:22:00,76.3,73.0,29.90,SSE,167,1.0,5.0,90,0.00,,,0.10,90,weatherlink.com 1.10,2013-07-12 23:22:00,
2013-07-12 19:37:00,76.3,74.0,29.90,SSE,167,0.0,2.0,91,0.00,,,0.10,77,weatherlink.com 1.10,2013-07-12 23:37:00,
2013-07-12 19:52:00,76.2,74.0,29.90,SSE,167,0.0,3.0,91,0.00,,,0.10,44,weatherlink.com 1.10,2013-07-12 23:52:00,
2013-07-12 20:52:00,75.0,73.0,29.91,SSE,167,0.0,2.0,94,0.00,,,0.10,0,weatherlink.com 1.10,2013-07-13 00:52:00,
2013-07-12 21:07:00,74.6,73.0,29.91,SSE,167,1.0,1.0,94,0.00,,,0.10,0,weatherlink.com 1.10,2013-07-13 01:07:00,
2013-07-12 21:22:00,74.5,73.0,29.91,SSE,167,0.0,5.0,95,0.00,,,0.10,0,weatherlink.com 1.10,2013-07-13 01:22:00,
2013-07-12 21:37:00,74.3,73.0,29.91,SSE,167,4.0,4.0,95,0.00,,,0.10,0,weatherlink.com 1.10,2013-07-13 01:37:00,
2013-07-12 21:52:00,74.3,73.0,29.92,SSE,167,0.0,2.0,96,0.00,,,0.10,0,weatherlink.com 1.10,2013-07-13 01:52:00,
2013-07-12 22:07:00,74.3,73.0,29.93,SSE,167,0.0,3.0,96,0.00,,,0.10,0,weatherlink.com 1.10,2013-07-13 02:07:00,
2013-07-12 22:37:00,74.4,73.0,29.94,SSE,167,0.0,0.0,96,0.00,,,0.10,0,weatherlink.com 1.10,2013-07-13 02:37:00,
2013-07-12 22:52:00,74.4,73.0,29.94,SSE,167,0.0,5.0,96,0.00,,,0.10,0,weatherlink.com 1.10,2013-07-13 02:52:00,
2013-07-12 23:07:00,74.4,73.0,29.94,SSE,167,0.0,0.0,96,0.00,,,0.10,0,weatherlink.com 1.10,2013-07-13 03:07:00,
2013-07-12 23:22:00,74.3,73.0,29.94,SSE,167,0.0,0.0,96,0.00,,,0.10,0,weatherlink.com 1.10,2013-07-13 03:22:00,
2013-07-12 23:37:00,74.4,74.0,29.94,SSE,167,0.0,0.0,97,0.00,,,0.10,0,weatherlink.com 1.10,2013-07-13 03:37:00,